sensor_id;sensor_type;location;lat;lon;timestamp;P1;durP1;ratioP1;P2;durP2;ratioP2
84729;SDS011;74950;56.832;41.398;2024-03-08T00:01:56;4.72;;;2.70;;
84729;SDS011;74950;56.832;41.398;2024-03-08T00:04:22;3.72;;;2.65;;
84729;SDS011;74950;56.832;41.398;2024-03-08T00:07:07;4.93;;;2.53;;
84729;SDS011;74950;56.832;41.398;2024-03-08T00:09:33;6.03;;;3.30;;
84729;SDS011;74950;56.832;41.398;2024-03-08T00:11:59;6.90;;;3.55;;
84729;SDS011;74950;56.832;41.398;2024-03-08T00:14:26;5.53;;;3.65;;
84729;SDS011;74950;56.832;41.398;2024-03-08T00:16:53;5.43;;;2.75;;
84729;SDS011;74950;56.832;41.398;2024-03-08T00:19:20;5.28;;;2.97;;
84729;SDS011;74950;56.832;41.398;2024-03-08T00:21:46;4.80;;;2.60;;
84729;SDS011;74950;56.832;41.398;2024-03-08T00:24:12;5.13;;;2.40;;
84729;SDS011;74950;56.832;41.398;2024-03-08T00:26:38;3.67;;;2.88;;
84729;SDS011;74950;56.832;41.398;2024-03-08T00:29:04;1.35;;;1.05;;
84729;SDS011;74950;56.832;41.398;2024-03-08T00:31:30;2.25;;;1.52;;
84729;SDS011;74950;56.832;41.398;2024-03-08T00:33:57;2.20;;;1.35;;
84729;SDS011;74950;56.832;41.398;2024-03-08T00:36:23;1.85;;;1.00;;
84729;SDS011;74950;56.832;41.398;2024-03-08T00:38:50;3.45;;;1.83;;
84729;SDS011;74950;56.832;41.398;2024-03-08T00:41:16;3.75;;;1.92;;
84729;SDS011;74950;56.832;41.398;2024-03-08T00:43:43;2.67;;;1.92;;
84729;SDS011;74950;56.832;41.398;2024-03-08T00:46:09;3.78;;;1.77;;
84729;SDS011;74950;56.832;41.398;2024-03-08T00:48:35;5.85;;;1.80;;
84729;SDS011;74950;56.832;41.398;2024-03-08T00:51:02;2.28;;;1.40;;
84729;SDS011;74950;56.832;41.398;2024-03-08T00:53:28;3.45;;;2.22;;
84729;SDS011;74950;56.832;41.398;2024-03-08T00:55:54;3.25;;;1.50;;
84729;SDS011;74950;56.832;41.398;2024-03-08T00:58:21;3.15;;;1.90;;
84729;SDS011;74950;56.832;41.398;2024-03-08T01:00:49;2.83;;;1.50;;
84729;SDS011;74950;56.832;41.398;2024-03-08T01:03:15;1.95;;;1.10;;
84729;SDS011;74950;56.832;41.398;2024-03-08T01:05:42;3.53;;;1.75;;
84729;SDS011;74950;56.832;41.398;2024-03-08T01:08:08;3.10;;;1.60;;
84729;SDS011;74950;56.832;41.398;2024-03-08T01:10:37;4.80;;;2.22;;
84729;SDS011;74950;56.832;41.398;2024-03-08T01:13:03;2.20;;;1.77;;
84729;SDS011;74950;56.832;41.398;2024-03-08T01:15:29;2.55;;;1.38;;
84729;SDS011;74950;56.832;41.398;2024-03-08T01:17:56;5.88;;;2.25;;
84729;SDS011;74950;56.832;41.398;2024-03-08T01:20:22;3.85;;;1.88;;
84729;SDS011;74950;56.832;41.398;2024-03-08T01:22:48;4.55;;;1.65;;
84729;SDS011;74950;56.832;41.398;2024-03-08T01:25:14;1.90;;;1.52;;
84729;SDS011;74950;56.832;41.398;2024-03-08T01:27:41;3.80;;;1.90;;
84729;SDS011;74950;56.832;41.398;2024-03-08T01:30:07;1.45;;;1.02;;
84729;SDS011;74950;56.832;41.398;2024-03-08T01:32:35;6.03;;;1.77;;
84729;SDS011;74950;56.832;41.398;2024-03-08T01:35:01;6.03;;;2.10;;
84729;SDS011;74950;56.832;41.398;2024-03-08T01:37:29;2.50;;;0.85;;
84729;SDS011;74950;56.832;41.398;2024-03-08T01:39:56;3.13;;;1.73;;
84729;SDS011;74950;56.832;41.398;2024-03-08T01:42:22;1.77;;;1.23;;
84729;SDS011;74950;56.832;41.398;2024-03-08T01:44:48;5.15;;;1.90;;
84729;SDS011;74950;56.832;41.398;2024-03-08T01:47:14;3.50;;;2.30;;
84729;SDS011;74950;56.832;41.398;2024-03-08T01:49:40;3.60;;;2.20;;
84729;SDS011;74950;56.832;41.398;2024-03-08T01:52:07;4.82;;;1.20;;
84729;SDS011;74950;56.832;41.398;2024-03-08T01:54:33;3.33;;;1.60;;
84729;SDS011;74950;56.832;41.398;2024-03-08T01:57:00;3.35;;;1.50;;
84729;SDS011;74950;56.832;41.398;2024-03-08T01:59:27;1.00;;;0.95;;
84729;SDS011;74950;56.832;41.398;2024-03-08T02:02:13;3.42;;;1.67;;
84729;SDS011;74950;56.832;41.398;2024-03-08T02:04:41;0.88;;;0.82;;
84729;SDS011;74950;56.832;41.398;2024-03-08T02:07:07;1.05;;;0.95;;
84729;SDS011;74950;56.832;41.398;2024-03-08T02:09:33;1.15;;;1.00;;
84729;SDS011;74950;56.832;41.398;2024-03-08T02:11:59;2.78;;;1.50;;
84729;SDS011;74950;56.832;41.398;2024-03-08T02:14:32;2.17;;;1.20;;
84729;SDS011;74950;56.832;41.398;2024-03-08T02:17:01;5.28;;;1.60;;
84729;SDS011;74950;56.832;41.398;2024-03-08T02:19:28;2.15;;;1.00;;
84729;SDS011;74950;56.832;41.398;2024-03-08T02:21:54;3.95;;;1.50;;
84729;SDS011;74950;56.832;41.398;2024-03-08T02:24:21;2.28;;;1.23;;
84729;SDS011;74950;56.832;41.398;2024-03-08T02:26:49;2.28;;;0.90;;
84729;SDS011;74950;56.832;41.398;2024-03-08T02:29:15;4.10;;;1.83;;
84729;SDS011;74950;56.832;41.398;2024-03-08T02:31:41;4.10;;;1.70;;
84729;SDS011;74950;56.832;41.398;2024-03-08T02:34:08;3.50;;;1.60;;
84729;SDS011;74950;56.832;41.398;2024-03-08T02:36:53;2.67;;;1.20;;
84729;SDS011;74950;56.832;41.398;2024-03-08T02:39:19;3.17;;;1.52;;
84729;SDS011;74950;56.832;41.398;2024-03-08T02:41:46;1.60;;;1.50;;
84729;SDS011;74950;56.832;41.398;2024-03-08T02:44:12;3.40;;;1.77;;
84729;SDS011;74950;56.832;41.398;2024-03-08T02:46:39;2.33;;;1.48;;
84729;SDS011;74950;56.832;41.398;2024-03-08T02:49:05;3.65;;;1.83;;
84729;SDS011;74950;56.832;41.398;2024-03-08T02:51:33;4.00;;;1.50;;
84729;SDS011;74950;56.832;41.398;2024-03-08T02:54:01;2.13;;;0.93;;
84729;SDS011;74950;56.832;41.398;2024-03-08T02:56:27;1.45;;;0.98;;
84729;SDS011;74950;56.832;41.398;2024-03-08T02:58:53;2.20;;;1.45;;
84729;SDS011;74950;56.832;41.398;2024-03-08T03:01:19;2.90;;;1.75;;
84729;SDS011;74950;56.832;41.398;2024-03-08T03:03:46;2.17;;;1.73;;
84729;SDS011;74950;56.832;41.398;2024-03-08T03:06:13;1.55;;;1.13;;
84729;SDS011;74950;56.832;41.398;2024-03-08T03:08:40;5.40;;;1.40;;
84729;SDS011;74950;56.832;41.398;2024-03-08T03:11:08;4.10;;;1.73;;
84729;SDS011;74950;56.832;41.398;2024-03-08T03:13:34;4.53;;;1.85;;
84729;SDS011;74950;56.832;41.398;2024-03-08T03:16:01;2.92;;;1.55;;
84729;SDS011;74950;56.832;41.398;2024-03-08T03:18:29;5.05;;;1.92;;
84729;SDS011;74950;56.832;41.398;2024-03-08T03:20:55;5.68;;;2.50;;
84729;SDS011;74950;56.832;41.398;2024-03-08T03:23:40;4.82;;;2.13;;
84729;SDS011;74950;56.832;41.398;2024-03-08T03:26:08;4.18;;;1.80;;
84729;SDS011;74950;56.832;41.398;2024-03-08T03:28:38;2.97;;;1.38;;
84729;SDS011;74950;56.832;41.398;2024-03-08T03:31:06;3.50;;;2.35;;
84729;SDS011;74950;56.832;41.398;2024-03-08T03:33:33;3.30;;;2.05;;
84729;SDS011;74950;56.832;41.398;2024-03-08T03:36:03;7.32;;;2.25;;
84729;SDS011;74950;56.832;41.398;2024-03-08T03:38:30;3.85;;;2.47;;
84729;SDS011;74950;56.832;41.398;2024-03-08T03:40:57;3.50;;;1.85;;
84729;SDS011;74950;56.832;41.398;2024-03-08T03:43:30;4.05;;;1.67;;
84729;SDS011;74950;56.832;41.398;2024-03-08T03:45:56;4.57;;;2.42;;
84729;SDS011;74950;56.832;41.398;2024-03-08T03:48:41;2.63;;;1.70;;
84729;SDS011;74950;56.832;41.398;2024-03-08T03:51:08;4.60;;;2.30;;
84729;SDS011;74950;56.832;41.398;2024-03-08T03:53:35;3.40;;;1.90;;
84729;SDS011;74950;56.832;41.398;2024-03-08T03:56:02;4.53;;;2.10;;
84729;SDS011;74950;56.832;41.398;2024-03-08T03:58:28;4.50;;;1.70;;
84729;SDS011;74950;56.832;41.398;2024-03-08T04:00:54;3.80;;;1.92;;
84729;SDS011;74950;56.832;41.398;2024-03-08T04:03:20;6.72;;;3.47;;
84729;SDS011;74950;56.832;41.398;2024-03-08T04:05:47;3.20;;;1.85;;
84729;SDS011;74950;56.832;41.398;2024-03-08T04:08:14;4.03;;;2.08;;
84729;SDS011;74950;56.832;41.398;2024-03-08T04:10:40;5.07;;;2.50;;
84729;SDS011;74950;56.832;41.398;2024-03-08T04:13:07;4.50;;;2.42;;
84729;SDS011;74950;56.832;41.398;2024-03-08T04:15:35;7.13;;;2.55;;
84729;SDS011;74950;56.832;41.398;2024-03-08T04:18:01;3.20;;;1.65;;
84729;SDS011;74950;56.832;41.398;2024-03-08T04:20:27;4.65;;;2.83;;
84729;SDS011;74950;56.832;41.398;2024-03-08T04:22:54;3.25;;;2.30;;
84729;SDS011;74950;56.832;41.398;2024-03-08T04:25:21;3.30;;;1.63;;
84729;SDS011;74950;56.832;41.398;2024-03-08T04:27:47;3.58;;;1.55;;
84729;SDS011;74950;56.832;41.398;2024-03-08T04:30:15;2.78;;;1.38;;
84729;SDS011;74950;56.832;41.398;2024-03-08T04:32:41;4.40;;;2.20;;
84729;SDS011;74950;56.832;41.398;2024-03-08T04:35:08;4.03;;;2.33;;
84729;SDS011;74950;56.832;41.398;2024-03-08T04:37:34;4.55;;;2.50;;
84729;SDS011;74950;56.832;41.398;2024-03-08T04:40:00;3.97;;;2.30;;
84729;SDS011;74950;56.832;41.398;2024-03-08T04:42:29;5.70;;;2.08;;
84729;SDS011;74950;56.832;41.398;2024-03-08T04:44:56;6.60;;;2.90;;
84729;SDS011;74950;56.832;41.398;2024-03-08T04:47:24;4.93;;;2.38;;
84729;SDS011;74950;56.832;41.398;2024-03-08T04:49:50;4.90;;;2.00;;
84729;SDS011;74950;56.832;41.398;2024-03-08T04:52:16;4.85;;;2.45;;
84729;SDS011;74950;56.832;41.398;2024-03-08T04:54:43;5.05;;;2.58;;
84729;SDS011;74950;56.832;41.398;2024-03-08T04:57:10;3.85;;;2.25;;
84729;SDS011;74950;56.832;41.398;2024-03-08T04:59:36;4.78;;;2.15;;
84729;SDS011;74950;56.832;41.398;2024-03-08T05:02:02;4.18;;;2.17;;
84729;SDS011;74950;56.832;41.398;2024-03-08T05:04:29;4.18;;;2.55;;
84729;SDS011;74950;56.832;41.398;2024-03-08T05:06:55;6.30;;;2.65;;
84729;SDS011;74950;56.832;41.398;2024-03-08T05:09:21;6.90;;;3.33;;
84729;SDS011;74950;56.832;41.398;2024-03-08T05:11:48;4.97;;;2.75;;
84729;SDS011;74950;56.832;41.398;2024-03-08T05:14:14;5.10;;;2.78;;
84729;SDS011;74950;56.832;41.398;2024-03-08T05:16:43;4.30;;;2.33;;
84729;SDS011;74950;56.832;41.398;2024-03-08T05:19:09;6.90;;;3.22;;
84729;SDS011;74950;56.832;41.398;2024-03-08T05:21:36;2.25;;;1.30;;
84729;SDS011;74950;56.832;41.398;2024-03-08T05:24:02;4.80;;;2.58;;
84729;SDS011;74950;56.832;41.398;2024-03-08T05:26:29;5.88;;;2.70;;
84729;SDS011;74950;56.832;41.398;2024-03-08T05:28:56;8.38;;;2.78;;
84729;SDS011;74950;56.832;41.398;2024-03-08T05:31:22;5.15;;;2.72;;
84729;SDS011;74950;56.832;41.398;2024-03-08T05:33:49;5.65;;;2.65;;
84729;SDS011;74950;56.832;41.398;2024-03-08T05:36:16;4.43;;;2.58;;
84729;SDS011;74950;56.832;41.398;2024-03-08T05:41:11;7.05;;;3.05;;
84729;SDS011;74950;56.832;41.398;2024-03-08T05:43:38;5.82;;;3.00;;
84729;SDS011;74950;56.832;41.398;2024-03-08T05:46:06;6.40;;;3.20;;
84729;SDS011;74950;56.832;41.398;2024-03-08T05:48:32;4.88;;;2.97;;
84729;SDS011;74950;56.832;41.398;2024-03-08T05:50:59;5.30;;;2.63;;
84729;SDS011;74950;56.832;41.398;2024-03-08T05:53:28;4.85;;;3.03;;
84729;SDS011;74950;56.832;41.398;2024-03-08T05:55:57;2.13;;;1.55;;
84729;SDS011;74950;56.832;41.398;2024-03-08T05:58:24;3.88;;;2.10;;
84729;SDS011;74950;56.832;41.398;2024-03-08T06:00:51;5.70;;;2.53;;
84729;SDS011;74950;56.832;41.398;2024-03-08T06:03:17;5.70;;;2.80;;
84729;SDS011;74950;56.832;41.398;2024-03-08T06:05:48;4.28;;;2.53;;
84729;SDS011;74950;56.832;41.398;2024-03-08T06:08:15;5.65;;;2.47;;
84729;SDS011;74950;56.832;41.398;2024-03-08T06:10:41;4.57;;;2.33;;
84729;SDS011;74950;56.832;41.398;2024-03-08T06:13:07;4.05;;;2.58;;
84729;SDS011;74950;56.832;41.398;2024-03-08T06:15:35;5.22;;;2.45;;
84729;SDS011;74950;56.832;41.398;2024-03-08T06:18:02;5.07;;;2.55;;
84729;SDS011;74950;56.832;41.398;2024-03-08T06:20:28;3.17;;;1.83;;
84729;SDS011;74950;56.832;41.398;2024-03-08T06:22:54;7.00;;;2.70;;
84729;SDS011;74950;56.832;41.398;2024-03-08T06:25:21;2.88;;;1.70;;
84729;SDS011;74950;56.832;41.398;2024-03-08T06:27:47;4.72;;;2.35;;
84729;SDS011;74950;56.832;41.398;2024-03-08T06:30:13;4.70;;;2.47;;
84729;SDS011;74950;56.832;41.398;2024-03-08T06:32:42;2.25;;;1.63;;
84729;SDS011;74950;56.832;41.398;2024-03-08T06:35:08;2.95;;;2.03;;
84729;SDS011;74950;56.832;41.398;2024-03-08T06:37:36;3.55;;;2.13;;
84729;SDS011;74950;56.832;41.398;2024-03-08T06:40:02;5.47;;;2.83;;
84729;SDS011;74950;56.832;41.398;2024-03-08T06:42:30;5.35;;;3.08;;
84729;SDS011;74950;56.832;41.398;2024-03-08T06:45:01;3.92;;;2.33;;
84729;SDS011;74950;56.832;41.398;2024-03-08T06:47:31;6.00;;;2.75;;
84729;SDS011;74950;56.832;41.398;2024-03-08T06:49:59;5.72;;;2.67;;
84729;SDS011;74950;56.832;41.398;2024-03-08T06:52:25;5.38;;;3.08;;
84729;SDS011;74950;56.832;41.398;2024-03-08T06:54:52;4.75;;;2.97;;
84729;SDS011;74950;56.832;41.398;2024-03-08T06:57:18;4.38;;;2.35;;
84729;SDS011;74950;56.832;41.398;2024-03-08T06:59:48;3.08;;;2.47;;
84729;SDS011;74950;56.832;41.398;2024-03-08T07:02:14;6.85;;;2.80;;
84729;SDS011;74950;56.832;41.398;2024-03-08T07:04:41;5.45;;;3.13;;
84729;SDS011;74950;56.832;41.398;2024-03-08T07:07:07;3.33;;;2.38;;
84729;SDS011;74950;56.832;41.398;2024-03-08T07:09:36;6.50;;;2.97;;
84729;SDS011;74950;56.832;41.398;2024-03-08T07:12:03;8.75;;;2.83;;
84729;SDS011;74950;56.832;41.398;2024-03-08T07:14:30;6.70;;;3.33;;
84729;SDS011;74950;56.832;41.398;2024-03-08T07:16:59;5.32;;;2.35;;
84729;SDS011;74950;56.832;41.398;2024-03-08T07:19:25;6.75;;;2.90;;
84729;SDS011;74950;56.832;41.398;2024-03-08T07:21:52;6.93;;;3.40;;
84729;SDS011;74950;56.832;41.398;2024-03-08T07:24:18;4.97;;;2.78;;
84729;SDS011;74950;56.832;41.398;2024-03-08T07:27:04;4.47;;;2.50;;
84729;SDS011;74950;56.832;41.398;2024-03-08T07:29:31;6.65;;;3.20;;
84729;SDS011;74950;56.832;41.398;2024-03-08T07:31:58;5.63;;;2.75;;
84729;SDS011;74950;56.832;41.398;2024-03-08T07:34:28;8.35;;;3.55;;
84729;SDS011;74950;56.832;41.398;2024-03-08T07:36:59;5.65;;;3.00;;
84729;SDS011;74950;56.832;41.398;2024-03-08T07:39:25;7.85;;;4.15;;
84729;SDS011;74950;56.832;41.398;2024-03-08T07:41:52;5.32;;;3.28;;
84729;SDS011;74950;56.832;41.398;2024-03-08T07:44:18;4.47;;;2.80;;
84729;SDS011;74950;56.832;41.398;2024-03-08T07:46:45;8.25;;;3.38;;
84729;SDS011;74950;56.832;41.398;2024-03-08T07:49:11;3.75;;;2.72;;
84729;SDS011;74950;56.832;41.398;2024-03-08T07:51:38;6.38;;;3.25;;
84729;SDS011;74950;56.832;41.398;2024-03-08T07:54:04;4.22;;;2.63;;
84729;SDS011;74950;56.832;41.398;2024-03-08T07:56:30;7.38;;;3.50;;
84729;SDS011;74950;56.832;41.398;2024-03-08T07:58:57;3.65;;;2.60;;
84729;SDS011;74950;56.832;41.398;2024-03-08T08:01:23;7.32;;;3.53;;
84729;SDS011;74950;56.832;41.398;2024-03-08T08:03:49;5.78;;;3.45;;
84729;SDS011;74950;56.832;41.398;2024-03-08T08:06:34;5.57;;;2.85;;
84729;SDS011;74950;56.832;41.398;2024-03-08T08:09:02;8.43;;;3.60;;
84729;SDS011;74950;56.832;41.398;2024-03-08T08:11:28;7.40;;;4.00;;
84729;SDS011;74950;56.832;41.398;2024-03-08T08:13:55;7.28;;;3.75;;
84729;SDS011;74950;56.832;41.398;2024-03-08T08:16:24;5.90;;;3.22;;
84729;SDS011;74950;56.832;41.398;2024-03-08T08:18:51;4.30;;;2.88;;
84729;SDS011;74950;56.832;41.398;2024-03-08T08:21:19;6.45;;;3.83;;
84729;SDS011;74950;56.832;41.398;2024-03-08T08:23:45;8.65;;;3.70;;
84729;SDS011;74950;56.832;41.398;2024-03-08T08:26:12;6.85;;;3.97;;
84729;SDS011;74950;56.832;41.398;2024-03-08T08:28:38;7.07;;;3.25;;
84729;SDS011;74950;56.832;41.398;2024-03-08T08:31:04;6.35;;;3.40;;
84729;SDS011;74950;56.832;41.398;2024-03-08T08:33:32;6.45;;;3.63;;
84729;SDS011;74950;56.832;41.398;2024-03-08T08:36:24;6.80;;;3.72;;
84729;SDS011;74950;56.832;41.398;2024-03-08T08:38:50;4.93;;;2.45;;
84729;SDS011;74950;56.832;41.398;2024-03-08T08:43:50;5.75;;;2.47;;
84729;SDS011;74950;56.832;41.398;2024-03-08T08:48:42;1.95;;;1.77;;
84729;SDS011;74950;56.832;41.398;2024-03-08T08:51:11;6.90;;;3.35;;
84729;SDS011;74950;56.832;41.398;2024-03-08T08:53:38;5.00;;;2.35;;
84729;SDS011;74950;56.832;41.398;2024-03-08T08:56:08;6.80;;;3.67;;
84729;SDS011;74950;56.832;41.398;2024-03-08T08:58:39;6.00;;;3.63;;
84729;SDS011;74950;56.832;41.398;2024-03-08T09:01:08;5.45;;;3.20;;
84729;SDS011;74950;56.832;41.398;2024-03-08T09:03:36;4.57;;;2.17;;
84729;SDS011;74950;56.832;41.398;2024-03-08T09:06:03;9.20;;;3.65;;
84729;SDS011;74950;56.832;41.398;2024-03-08T09:08:30;6.57;;;3.35;;
84729;SDS011;74950;56.832;41.398;2024-03-08T09:10:56;6.10;;;3.50;;
84729;SDS011;74950;56.832;41.398;2024-03-08T09:14:23;5.60;;;2.70;;
84729;SDS011;74950;56.832;41.398;2024-03-08T09:16:12;6.15;;;2.75;;
84729;SDS011;74950;56.832;41.398;2024-03-08T09:18:38;5.22;;;2.80;;
84729;SDS011;74950;56.832;41.398;2024-03-08T09:21:05;6.68;;;2.40;;
84729;SDS011;74950;56.832;41.398;2024-03-08T09:23:31;4.80;;;2.60;;
84729;SDS011;74950;56.832;41.398;2024-03-08T09:25:57;7.53;;;3.30;;
84729;SDS011;74950;56.832;41.398;2024-03-08T09:28:24;5.75;;;2.72;;
84729;SDS011;74950;56.832;41.398;2024-03-08T09:30:50;4.72;;;3.50;;
84729;SDS011;74950;56.832;41.398;2024-03-08T09:33:16;5.00;;;2.83;;
84729;SDS011;74950;56.832;41.398;2024-03-08T09:35:45;5.05;;;2.70;;
84729;SDS011;74950;56.832;41.398;2024-03-08T09:38:14;3.30;;;2.10;;
84729;SDS011;74950;56.832;41.398;2024-03-08T09:40:41;4.53;;;2.67;;
84729;SDS011;74950;56.832;41.398;2024-03-08T09:43:07;4.25;;;2.45;;
84729;SDS011;74950;56.832;41.398;2024-03-08T09:45:53;5.30;;;2.40;;
84729;SDS011;74950;56.832;41.398;2024-03-08T09:48:19;3.65;;;2.10;;
84729;SDS011;74950;56.832;41.398;2024-03-08T09:50:46;4.82;;;2.95;;
84729;SDS011;74950;56.832;41.398;2024-03-08T09:53:12;5.78;;;3.08;;
84729;SDS011;74950;56.832;41.398;2024-03-08T09:55:38;5.32;;;3.30;;
84729;SDS011;74950;56.832;41.398;2024-03-08T09:58:11;5.18;;;2.75;;
84729;SDS011;74950;56.832;41.398;2024-03-08T10:00:59;7.53;;;3.58;;
84729;SDS011;74950;56.832;41.398;2024-03-08T10:03:30;5.53;;;3.30;;
84729;SDS011;74950;56.832;41.398;2024-03-08T10:06:01;5.10;;;2.85;;
84729;SDS011;74950;56.832;41.398;2024-03-08T10:08:28;7.00;;;3.13;;
84729;SDS011;74950;56.832;41.398;2024-03-08T10:10:56;6.20;;;2.88;;
84729;SDS011;74950;56.832;41.398;2024-03-08T10:13:25;5.05;;;2.30;;
84729;SDS011;74950;56.832;41.398;2024-03-08T10:15:56;4.50;;;2.00;;
84729;SDS011;74950;56.832;41.398;2024-03-08T10:18:22;4.10;;;2.15;;
84729;SDS011;74950;56.832;41.398;2024-03-08T10:21:01;3.75;;;2.47;;
84729;SDS011;74950;56.832;41.398;2024-03-08T10:23:30;3.92;;;2.50;;
84729;SDS011;74950;56.832;41.398;2024-03-08T10:25:57;3.90;;;2.17;;
84729;SDS011;74950;56.832;41.398;2024-03-08T10:28:24;3.90;;;2.25;;
84729;SDS011;74950;56.832;41.398;2024-03-08T10:30:55;3.15;;;1.95;;
84729;SDS011;74950;56.832;41.398;2024-03-08T10:33:24;2.30;;;1.38;;
84729;SDS011;74950;56.832;41.398;2024-03-08T10:35:51;3.63;;;2.50;;
84729;SDS011;74950;56.832;41.398;2024-03-08T10:38:18;2.55;;;1.45;;
84729;SDS011;74950;56.832;41.398;2024-03-08T10:40:48;1.92;;;1.35;;
84729;SDS011;74950;56.832;41.398;2024-03-08T10:43:19;2.60;;;1.85;;
84729;SDS011;74950;56.832;41.398;2024-03-08T10:45:54;2.85;;;1.88;;
84729;SDS011;74950;56.832;41.398;2024-03-08T10:50:58;4.15;;;2.10;;
84729;SDS011;74950;56.832;41.398;2024-03-08T10:53:28;4.82;;;2.25;;
84729;SDS011;74950;56.832;41.398;2024-03-08T10:55:56;3.50;;;2.05;;
84729;SDS011;74950;56.832;41.398;2024-03-08T10:58:24;4.10;;;1.92;;
84729;SDS011;74950;56.832;41.398;2024-03-08T11:00:54;2.70;;;1.65;;
84729;SDS011;74950;56.832;41.398;2024-03-08T11:06:17;3.25;;;2.47;;
84729;SDS011;74950;56.832;41.398;2024-03-08T11:11:24;2.25;;;1.55;;
84729;SDS011;74950;56.832;41.398;2024-03-08T11:13:58;2.63;;;1.60;;
84729;SDS011;74950;56.832;41.398;2024-03-08T11:18:54;4.63;;;2.10;;
84729;SDS011;74950;56.832;41.398;2024-03-08T11:21:30;3.70;;;2.67;;
84729;SDS011;74950;56.832;41.398;2024-03-08T11:26:34;2.35;;;1.52;;
84729;SDS011;74950;56.832;41.398;2024-03-08T11:29:36;3.42;;;1.58;;
84729;SDS011;74950;56.832;41.398;2024-03-08T11:32:14;3.25;;;1.40;;
84729;SDS011;74950;56.832;41.398;2024-03-08T11:34:45;3.40;;;2.03;;
84729;SDS011;74950;56.832;41.398;2024-03-08T11:37:13;2.15;;;1.58;;
84729;SDS011;74950;56.832;41.398;2024-03-08T11:39:48;3.42;;;2.00;;
84729;SDS011;74950;56.832;41.398;2024-03-08T11:42:15;3.65;;;1.98;;
84729;SDS011;74950;56.832;41.398;2024-03-08T11:44:44;3.92;;;2.00;;
84729;SDS011;74950;56.832;41.398;2024-03-08T11:47:11;2.42;;;1.80;;
84729;SDS011;74950;56.832;41.398;2024-03-08T11:49:38;3.08;;;1.80;;
84729;SDS011;74950;56.832;41.398;2024-03-08T11:52:06;4.45;;;2.80;;
84729;SDS011;74950;56.832;41.398;2024-03-08T11:54:32;4.40;;;2.15;;
84729;SDS011;74950;56.832;41.398;2024-03-08T11:57:00;3.95;;;1.77;;
84729;SDS011;74950;56.832;41.398;2024-03-08T11:59:27;4.95;;;1.83;;
84729;SDS011;74950;56.832;41.398;2024-03-08T12:02:07;4.97;;;1.98;;
84729;SDS011;74950;56.832;41.398;2024-03-08T12:04:37;6.30;;;2.95;;
84729;SDS011;74950;56.832;41.398;2024-03-08T12:07:04;2.83;;;1.90;;
84729;SDS011;74950;56.832;41.398;2024-03-08T12:09:35;2.75;;;1.67;;
84729;SDS011;74950;56.832;41.398;2024-03-08T12:12:03;1.73;;;1.30;;
84729;SDS011;74950;56.832;41.398;2024-03-08T12:14:30;3.30;;;1.65;;
84729;SDS011;74950;56.832;41.398;2024-03-08T12:16:57;3.97;;;1.85;;
84729;SDS011;74950;56.832;41.398;2024-03-08T12:19:28;5.00;;;1.90;;
84729;SDS011;74950;56.832;41.398;2024-03-08T12:21:54;2.85;;;1.60;;
84729;SDS011;74950;56.832;41.398;2024-03-08T12:24:21;2.25;;;1.52;;
84729;SDS011;74950;56.832;41.398;2024-03-08T12:26:47;3.42;;;1.70;;
84729;SDS011;74950;56.832;41.398;2024-03-08T12:29:32;2.88;;;1.58;;
84729;SDS011;74950;56.832;41.398;2024-03-08T12:31:59;3.45;;;1.45;;
84729;SDS011;74950;56.832;41.398;2024-03-08T12:34:27;3.65;;;2.28;;
84729;SDS011;74950;56.832;41.398;2024-03-08T12:37:12;2.40;;;1.52;;
84729;SDS011;74950;56.832;41.398;2024-03-08T12:39:40;4.80;;;1.73;;
84729;SDS011;74950;56.832;41.398;2024-03-08T12:42:06;2.63;;;1.48;;
84729;SDS011;74950;56.832;41.398;2024-03-08T12:44:32;2.97;;;1.83;;
84729;SDS011;74950;56.832;41.398;2024-03-08T12:46:59;1.42;;;1.10;;
84729;SDS011;74950;56.832;41.398;2024-03-08T12:49:25;2.10;;;1.42;;
84729;SDS011;74950;56.832;41.398;2024-03-08T12:51:52;2.78;;;1.50;;
84729;SDS011;74950;56.832;41.398;2024-03-08T12:55:21;3.75;;;1.95;;
84729;SDS011;74950;56.832;41.398;2024-03-08T12:59:33;2.13;;;1.33;;
84729;SDS011;74950;56.832;41.398;2024-03-08T13:01:59;2.63;;;1.33;;
84729;SDS011;74950;56.832;41.398;2024-03-08T13:04:31;3.30;;;1.63;;
84729;SDS011;74950;56.832;41.398;2024-03-08T13:09:27;1.70;;;1.27;;
84729;SDS011;74950;56.832;41.398;2024-03-08T13:11:53;8.98;;;3.47;;
84729;SDS011;74950;56.832;41.398;2024-03-08T13:14:21;5.65;;;3.10;;
84729;SDS011;74950;56.832;41.398;2024-03-08T13:17:07;6.95;;;2.65;;
84729;SDS011;74950;56.832;41.398;2024-03-08T13:19:36;6.15;;;2.78;;
84729;SDS011;74950;56.832;41.398;2024-03-08T13:22:04;5.63;;;3.05;;
84729;SDS011;74950;56.832;41.398;2024-03-08T13:24:30;4.25;;;1.98;;
84729;SDS011;74950;56.832;41.398;2024-03-08T13:26:57;3.00;;;2.20;;
84729;SDS011;74950;56.832;41.398;2024-03-08T13:32:10;3.63;;;1.92;;
84729;SDS011;74950;56.832;41.398;2024-03-08T13:34:40;3.85;;;1.88;;
84729;SDS011;74950;56.832;41.398;2024-03-08T13:37:07;4.28;;;2.20;;
84729;SDS011;74950;56.832;41.398;2024-03-08T13:39:35;3.53;;;1.92;;
84729;SDS011;74950;56.832;41.398;2024-03-08T13:42:07;3.17;;;1.88;;
84729;SDS011;74950;56.832;41.398;2024-03-08T13:44:39;5.95;;;2.42;;
84729;SDS011;74950;56.832;41.398;2024-03-08T13:47:10;4.50;;;1.98;;
84729;SDS011;74950;56.832;41.398;2024-03-08T13:49:37;5.85;;;2.50;;
84729;SDS011;74950;56.832;41.398;2024-03-08T13:52:05;5.03;;;2.58;;
84729;SDS011;74950;56.832;41.398;2024-03-08T13:54:47;4.82;;;2.22;;
84729;SDS011;74950;56.832;41.398;2024-03-08T13:57:14;4.82;;;2.17;;
84729;SDS011;74950;56.832;41.398;2024-03-08T13:59:41;4.05;;;2.05;;
84729;SDS011;74950;56.832;41.398;2024-03-08T14:02:07;4.82;;;2.33;;
84729;SDS011;74950;56.832;41.398;2024-03-08T14:04:39;6.95;;;3.17;;
84729;SDS011;74950;56.832;41.398;2024-03-08T14:07:07;5.45;;;2.53;;
84729;SDS011;74950;56.832;41.398;2024-03-08T14:09:34;5.57;;;2.90;;
84729;SDS011;74950;56.832;41.398;2024-03-08T14:12:03;4.95;;;2.90;;
84729;SDS011;74950;56.832;41.398;2024-03-08T14:14:33;5.30;;;3.05;;
84729;SDS011;74950;56.832;41.398;2024-03-08T14:17:04;6.38;;;2.95;;
84729;SDS011;74950;56.832;41.398;2024-03-08T14:19:35;6.65;;;2.50;;
84729;SDS011;74950;56.832;41.398;2024-03-08T14:22:01;6.40;;;3.28;;
84729;SDS011;74950;56.832;41.398;2024-03-08T14:24:33;6.88;;;3.15;;
84729;SDS011;74950;56.832;41.398;2024-03-08T14:27:01;5.70;;;3.22;;
84729;SDS011;74950;56.832;41.398;2024-03-08T14:29:29;7.40;;;3.30;;
84729;SDS011;74950;56.832;41.398;2024-03-08T14:31:58;6.00;;;3.10;;
84729;SDS011;74950;56.832;41.398;2024-03-08T14:34:25;9.90;;;4.15;;
84729;SDS011;74950;56.832;41.398;2024-03-08T14:36:56;9.20;;;5.03;;
84729;SDS011;74950;56.832;41.398;2024-03-08T14:39:22;8.88;;;3.72;;
84729;SDS011;74950;56.832;41.398;2024-03-08T14:41:52;8.88;;;4.38;;
84729;SDS011;74950;56.832;41.398;2024-03-08T14:44:24;9.63;;;4.32;;
84729;SDS011;74950;56.832;41.398;2024-03-08T14:46:52;8.05;;;4.15;;
84729;SDS011;74950;56.832;41.398;2024-03-08T14:49:19;7.22;;;3.90;;
84729;SDS011;74950;56.832;41.398;2024-03-08T14:51:45;9.50;;;4.45;;
84729;SDS011;74950;56.832;41.398;2024-03-08T14:54:11;9.35;;;4.40;;
84729;SDS011;74950;56.832;41.398;2024-03-08T14:56:39;8.40;;;4.55;;
84729;SDS011;74950;56.832;41.398;2024-03-08T14:59:09;9.63;;;5.30;;
84729;SDS011;74950;56.832;41.398;2024-03-08T15:01:35;6.82;;;4.25;;
84729;SDS011;74950;56.832;41.398;2024-03-08T15:04:02;8.75;;;5.03;;
84729;SDS011;74950;56.832;41.398;2024-03-08T15:06:52;7.82;;;4.75;;
84729;SDS011;74950;56.832;41.398;2024-03-08T15:09:19;6.85;;;4.13;;